sensor_id;sensor_type;location;lat;lon;timestamp;P1;durP1;ratioP1;P2;durP2;ratioP2
438;SDS011;206;48.782;9.252;2023-02-28T00:00:51;4.40;;;3.00;;
438;SDS011;206;48.782;9.252;2023-02-28T00:03:16;3.60;;;3.07;;
438;SDS011;206;48.782;9.252;2023-02-28T00:05:42;3.70;;;2.60;;
438;SDS011;206;48.782;9.252;2023-02-28T00:08:08;4.57;;;2.73;;
438;SDS011;206;48.782;9.252;2023-02-28T00:10:34;5.87;;;3.30;;
438;SDS011;206;48.782;9.252;2023-02-28T00:13:04;3.20;;;2.17;;
438;SDS011;206;48.782;9.252;2023-02-28T00:15:31;4.65;;;3.35;;
438;SDS011;206;48.782;9.252;2023-02-28T00:17:57;3.53;;;2.92;;
438;SDS011;206;48.782;9.252;2023-02-28T00:20:23;2.73;;;2.53;;
438;SDS011;206;48.782;9.252;2023-02-28T00:22:50;4.30;;;3.20;;
438;SDS011;206;48.782;9.252;2023-02-28T00:25:18;3.87;;;2.50;;
438;SDS011;206;48.782;9.252;2023-02-28T00:27:46;2.95;;;2.15;;
438;SDS011;206;48.782;9.252;2023-02-28T00:30:13;3.40;;;2.90;;
438;SDS011;206;48.782;9.252;2023-02-28T00:32:41;4.03;;;2.60;;
438;SDS011;206;48.782;9.252;2023-02-28T00:35:07;4.20;;;2.73;;
438;SDS011;206;48.782;9.252;2023-02-28T00:37:33;3.43;;;2.60;;
438;SDS011;206;48.782;9.252;2023-02-28T00:39:59;4.00;;;2.83;;
438;SDS011;206;48.782;9.252;2023-02-28T00:42:25;3.00;;;2.47;;
438;SDS011;206;48.782;9.252;2023-02-28T00:44:51;4.93;;;2.93;;
438;SDS011;206;48.782;9.252;2023-02-28T00:47:16;2.63;;;2.33;;
438;SDS011;206;48.782;9.252;2023-02-28T00:49:42;3.03;;;2.57;;
438;SDS011;206;48.782;9.252;2023-02-28T00:52:08;4.40;;;2.20;;
438;SDS011;206;48.782;9.252;2023-02-28T00:54:34;4.30;;;2.50;;
438;SDS011;206;48.782;9.252;2023-02-28T00:57:00;5.03;;;3.20;;
438;SDS011;206;48.782;9.252;2023-02-28T00:59:25;5.60;;;2.70;;
438;SDS011;206;48.782;9.252;2023-02-28T01:01:51;6.20;;;3.73;;
438;SDS011;206;48.782;9.252;2023-02-28T01:04:17;4.43;;;3.07;;
438;SDS011;206;48.782;9.252;2023-02-28T01:06:42;11.60;;;2.70;;
438;SDS011;206;48.782;9.252;2023-02-28T01:09:08;4.10;;;3.20;;
438;SDS011;206;48.782;9.252;2023-02-28T01:11:34;4.03;;;2.60;;
438;SDS011;206;48.782;9.252;2023-02-28T01:14:00;5.97;;;3.40;;
438;SDS011;206;48.782;9.252;2023-02-28T01:16:26;3.43;;;2.80;;
438;SDS011;206;48.782;9.252;2023-02-28T01:18:52;4.47;;;2.73;;
438;SDS011;206;48.782;9.252;2023-02-28T01:21:18;4.30;;;2.57;;
438;SDS011;206;48.782;9.252;2023-02-28T01:23:45;4.27;;;2.80;;
438;SDS011;206;48.782;9.252;2023-02-28T01:28:41;4.10;;;3.33;;
438;SDS011;206;48.782;9.252;2023-02-28T01:31:07;5.70;;;2.70;;
438;SDS011;206;48.782;9.252;2023-02-28T01:33:34;3.30;;;3.10;;
438;SDS011;206;48.782;9.252;2023-02-28T01:36:00;4.70;;;2.70;;
438;SDS011;206;48.782;9.252;2023-02-28T01:38:28;4.30;;;2.83;;
438;SDS011;206;48.782;9.252;2023-02-28T01:40:54;3.90;;;2.78;;
438;SDS011;206;48.782;9.252;2023-02-28T01:43:21;4.10;;;2.50;;
438;SDS011;206;48.782;9.252;2023-02-28T01:45:49;7.83;;;3.13;;
438;SDS011;206;48.782;9.252;2023-02-28T01:48:15;5.97;;;4.03;;
438;SDS011;206;48.782;9.252;2023-02-28T01:50:43;5.73;;;2.83;;
438;SDS011;206;48.782;9.252;2023-02-28T01:53:13;4.73;;;3.43;;
438;SDS011;206;48.782;9.252;2023-02-28T01:55:42;5.40;;;3.20;;
438;SDS011;206;48.782;9.252;2023-02-28T01:58:12;4.10;;;2.90;;
438;SDS011;206;48.782;9.252;2023-02-28T02:00:38;9.13;;;2.80;;
438;SDS011;206;48.782;9.252;2023-02-28T02:03:09;6.30;;;3.57;;
438;SDS011;206;48.782;9.252;2023-02-28T02:05:38;4.30;;;3.40;;
438;SDS011;206;48.782;9.252;2023-02-28T02:08:09;4.38;;;3.03;;
438;SDS011;206;48.782;9.252;2023-02-28T02:10:56;4.70;;;3.33;;
438;SDS011;206;48.782;9.252;2023-02-28T02:24:20;3.20;;;2.60;;
438;SDS011;206;48.782;9.252;2023-02-28T02:35:13;3.10;;;2.73;;
438;SDS011;206;48.782;9.252;2023-02-28T02:38:03;4.57;;;3.03;;
438;SDS011;206;48.782;9.252;2023-02-28T02:41:14;4.17;;;3.30;;
438;SDS011;206;48.782;9.252;2023-02-28T02:43:49;6.50;;;3.10;;
438;SDS011;206;48.782;9.252;2023-02-28T02:46:24;4.00;;;3.53;;
438;SDS011;206;48.782;9.252;2023-02-28T02:48:54;4.30;;;3.30;;
438;SDS011;206;48.782;9.252;2023-02-28T02:51:21;8.30;;;3.70;;
438;SDS011;206;48.782;9.252;2023-02-28T02:53:50;4.40;;;3.15;;
438;SDS011;206;48.782;9.252;2023-02-28T02:56:35;5.27;;;3.80;;
438;SDS011;206;48.782;9.252;2023-02-28T02:59:05;3.37;;;3.20;;
438;SDS011;206;48.782;9.252;2023-02-28T03:01:34;4.13;;;3.70;;
438;SDS011;206;48.782;9.252;2023-02-28T03:04:12;4.37;;;3.67;;
438;SDS011;206;48.782;9.252;2023-02-28T03:06:41;4.53;;;3.80;;
438;SDS011;206;48.782;9.252;2023-02-28T03:09:07;3.57;;;3.20;;
438;SDS011;206;48.782;9.252;2023-02-28T03:11:33;6.27;;;4.23;;
438;SDS011;206;48.782;9.252;2023-02-28T03:30:32;5.00;;;3.60;;
438;SDS011;206;48.782;9.252;2023-02-28T03:33:12;6.00;;;3.47;;
438;SDS011;206;48.782;9.252;2023-02-28T03:35:55;3.83;;;3.67;;
438;SDS011;206;48.782;9.252;2023-02-28T03:38:29;4.33;;;4.00;;
438;SDS011;206;48.782;9.252;2023-02-28T03:41:22;3.47;;;3.17;;
438;SDS011;206;48.782;9.252;2023-02-28T03:44:13;9.43;;;4.90;;
438;SDS011;206;48.782;9.252;2023-02-28T03:46:52;3.93;;;3.77;;
438;SDS011;206;48.782;9.252;2023-02-28T03:49:31;3.42;;;3.20;;
438;SDS011;206;48.782;9.252;2023-02-28T03:52:02;9.70;;;3.77;;
438;SDS011;206;48.782;9.252;2023-02-28T03:54:31;5.27;;;3.80;;
438;SDS011;206;48.782;9.252;2023-02-28T04:00:06;4.77;;;3.80;;
438;SDS011;206;48.782;9.252;2023-02-28T04:02:32;7.53;;;3.80;;
438;SDS011;206;48.782;9.252;2023-02-28T04:04:59;5.10;;;3.50;;
438;SDS011;206;48.782;9.252;2023-02-28T04:07:28;5.80;;;4.50;;
438;SDS011;206;48.782;9.252;2023-02-28T04:09:55;5.83;;;4.40;;
438;SDS011;206;48.782;9.252;2023-02-28T04:12:21;4.77;;;4.47;;
438;SDS011;206;48.782;9.252;2023-02-28T04:14:48;5.50;;;4.43;;
438;SDS011;206;48.782;9.252;2023-02-28T04:17:14;6.20;;;4.30;;
438;SDS011;206;48.782;9.252;2023-02-28T04:19:40;6.70;;;4.13;;
438;SDS011;206;48.782;9.252;2023-02-28T04:22:05;3.47;;;3.27;;
438;SDS011;206;48.782;9.252;2023-02-28T04:24:33;4.53;;;3.57;;
438;SDS011;206;48.782;9.252;2023-02-28T04:26:58;5.27;;;3.83;;
438;SDS011;206;48.782;9.252;2023-02-28T04:29:28;4.93;;;3.80;;
438;SDS011;206;48.782;9.252;2023-02-28T04:31:56;10.40;;;7.20;;
438;SDS011;206;48.782;9.252;2023-02-28T04:34:25;10.40;;;3.90;;
438;SDS011;206;48.782;9.252;2023-02-28T04:36:52;7.70;;;4.80;;
438;SDS011;206;48.782;9.252;2023-02-28T04:39:21;8.63;;;4.10;;
438;SDS011;206;48.782;9.252;2023-02-28T04:41:47;7.53;;;4.43;;
438;SDS011;206;48.782;9.252;2023-02-28T04:44:13;4.93;;;3.90;;
438;SDS011;206;48.782;9.252;2023-02-28T04:46:39;6.33;;;4.40;;
438;SDS011;206;48.782;9.252;2023-02-28T04:49:05;6.83;;;4.17;;
438;SDS011;206;48.782;9.252;2023-02-28T04:51:31;3.90;;;3.30;;
438;SDS011;206;48.782;9.252;2023-02-28T04:53:56;5.47;;;3.70;;
438;SDS011;206;48.782;9.252;2023-02-28T04:56:22;7.10;;;5.20;;
438;SDS011;206;48.782;9.252;2023-02-28T04:58:48;4.80;;;4.13;;
438;SDS011;206;48.782;9.252;2023-02-28T05:01:21;4.30;;;4.10;;
438;SDS011;206;48.782;9.252;2023-02-28T05:03:47;7.03;;;4.63;;
438;SDS011;206;48.782;9.252;2023-02-28T05:06:14;4.80;;;4.10;;
438;SDS011;206;48.782;9.252;2023-02-28T05:08:40;5.20;;;4.33;;
438;SDS011;206;48.782;9.252;2023-02-28T05:11:06;4.97;;;4.70;;
438;SDS011;206;48.782;9.252;2023-02-28T05:13:38;6.23;;;4.37;;
438;SDS011;206;48.782;9.252;2023-02-28T05:16:04;5.23;;;4.73;;
438;SDS011;206;48.782;9.252;2023-02-28T05:18:30;6.53;;;5.10;;
438;SDS011;206;48.782;9.252;2023-02-28T05:20:55;4.97;;;3.90;;
438;SDS011;206;48.782;9.252;2023-02-28T05:23:21;6.50;;;4.57;;
438;SDS011;206;48.782;9.252;2023-02-28T05:25:47;8.40;;;4.23;;
438;SDS011;206;48.782;9.252;2023-02-28T05:28:13;4.50;;;4.20;;
438;SDS011;206;48.782;9.252;2023-02-28T05:30:39;6.37;;;5.27;;
438;SDS011;206;48.782;9.252;2023-02-28T05:33:05;8.47;;;8.00;;
438;SDS011;206;48.782;9.252;2023-02-28T05:35:30;5.73;;;4.93;;
438;SDS011;206;48.782;9.252;2023-02-28T05:37:56;5.40;;;5.10;;
438;SDS011;206;48.782;9.252;2023-02-28T05:40:22;7.23;;;5.10;;
438;SDS011;206;48.782;9.252;2023-02-28T05:42:48;11.00;;;5.57;;
438;SDS011;206;48.782;9.252;2023-02-28T05:45:15;6.27;;;4.20;;
438;SDS011;206;48.782;9.252;2023-02-28T05:47:42;9.73;;;6.30;;
438;SDS011;206;48.782;9.252;2023-02-28T05:50:08;5.90;;;4.90;;
438;SDS011;206;48.782;9.252;2023-02-28T05:52:35;7.00;;;5.07;;
438;SDS011;206;48.782;9.252;2023-02-28T05:55:01;7.20;;;5.60;;
438;SDS011;206;48.782;9.252;2023-02-28T05:57:27;5.87;;;5.57;;
438;SDS011;206;48.782;9.252;2023-02-28T05:59:52;7.03;;;4.70;;
438;SDS011;206;48.782;9.252;2023-02-28T06:02:18;4.90;;;4.30;;
438;SDS011;206;48.782;9.252;2023-02-28T06:04:44;6.67;;;5.87;;
438;SDS011;206;48.782;9.252;2023-02-28T06:07:09;5.50;;;4.67;;
438;SDS011;206;48.782;9.252;2023-02-28T06:09:36;8.40;;;5.10;;
438;SDS011;206;48.782;9.252;2023-02-28T06:12:02;5.77;;;5.10;;
438;SDS011;206;48.782;9.252;2023-02-28T06:14:30;5.40;;;5.10;;
438;SDS011;206;48.782;9.252;2023-02-28T06:16:57;7.63;;;5.50;;
438;SDS011;206;48.782;9.252;2023-02-28T06:19:24;6.90;;;6.40;;
438;SDS011;206;48.782;9.252;2023-02-28T06:21:53;10.83;;;4.90;;
438;SDS011;206;48.782;9.252;2023-02-28T06:24:20;5.87;;;5.07;;
438;SDS011;206;48.782;9.252;2023-02-28T06:26:47;7.17;;;5.37;;
438;SDS011;206;48.782;9.252;2023-02-28T06:29:13;7.97;;;5.60;;
438;SDS011;206;48.782;9.252;2023-02-28T06:31:43;5.60;;;5.03;;
438;SDS011;206;48.782;9.252;2023-02-28T06:34:10;6.60;;;5.03;;
438;SDS011;206;48.782;9.252;2023-02-28T06:36:37;5.50;;;4.83;;
438;SDS011;206;48.782;9.252;2023-02-28T06:39:03;9.83;;;5.67;;
438;SDS011;206;48.782;9.252;2023-02-28T06:41:29;6.80;;;5.43;;
438;SDS011;206;48.782;9.252;2023-02-28T06:43:55;9.10;;;5.10;;
438;SDS011;206;48.782;9.252;2023-02-28T06:46:20;7.93;;;5.33;;
438;SDS011;206;48.782;9.252;2023-02-28T06:48:46;7.40;;;5.27;;
438;SDS011;206;48.782;9.252;2023-02-28T06:51:14;11.37;;;5.90;;
438;SDS011;206;48.782;9.252;2023-02-28T06:53:45;8.23;;;6.23;;
438;SDS011;206;48.782;9.252;2023-02-28T06:56:12;8.57;;;5.40;;
438;SDS011;206;48.782;9.252;2023-02-28T06:58:39;6.60;;;5.60;;
438;SDS011;206;48.782;9.252;2023-02-28T07:01:05;8.00;;;5.83;;
438;SDS011;206;48.782;9.252;2023-02-28T07:03:31;8.43;;;5.90;;
438;SDS011;206;48.782;9.252;2023-02-28T07:05:57;7.77;;;6.20;;
438;SDS011;206;48.782;9.252;2023-02-28T07:08:24;8.20;;;6.70;;
438;SDS011;206;48.782;9.252;2023-02-28T07:10:53;7.90;;;6.10;;
438;SDS011;206;48.782;9.252;2023-02-28T07:13:19;9.93;;;6.23;;
438;SDS011;206;48.782;9.252;2023-02-28T07:15:52;9.57;;;5.97;;
438;SDS011;206;48.782;9.252;2023-02-28T07:18:23;9.93;;;8.15;;
438;SDS011;206;48.782;9.252;2023-02-28T07:20:49;8.30;;;7.03;;
438;SDS011;206;48.782;9.252;2023-02-28T07:23:15;9.43;;;6.40;;
438;SDS011;206;48.782;9.252;2023-02-28T07:25:40;6.67;;;6.30;;
438;SDS011;206;48.782;9.252;2023-02-28T07:28:06;13.40;;;6.00;;
438;SDS011;206;48.782;9.252;2023-02-28T07:30:32;7.37;;;5.50;;
438;SDS011;206;48.782;9.252;2023-02-28T07:32:57;8.10;;;5.93;;
438;SDS011;206;48.782;9.252;2023-02-28T07:35:23;8.60;;;7.37;;
438;SDS011;206;48.782;9.252;2023-02-28T07:37:48;6.90;;;5.93;;
438;SDS011;206;48.782;9.252;2023-02-28T07:40:14;6.57;;;6.23;;
438;SDS011;206;48.782;9.252;2023-02-28T07:42:41;8.30;;;6.20;;
438;SDS011;206;48.782;9.252;2023-02-28T07:45:07;7.17;;;6.00;;
438;SDS011;206;48.782;9.252;2023-02-28T07:47:36;6.60;;;5.90;;
438;SDS011;206;48.782;9.252;2023-02-28T07:50:06;10.77;;;7.03;;
438;SDS011;206;48.782;9.252;2023-02-28T07:52:34;12.90;;;7.13;;
438;SDS011;206;48.782;9.252;2023-02-28T07:55:00;8.80;;;6.37;;
438;SDS011;206;48.782;9.252;2023-02-28T07:57:26;10.23;;;6.83;;
438;SDS011;206;48.782;9.252;2023-02-28T07:59:52;8.70;;;6.90;;
438;SDS011;206;48.782;9.252;2023-02-28T08:02:17;6.67;;;5.50;;
438;SDS011;206;48.782;9.252;2023-02-28T08:04:44;8.13;;;6.27;;
438;SDS011;206;48.782;9.252;2023-02-28T08:07:11;8.90;;;6.97;;
438;SDS011;206;48.782;9.252;2023-02-28T08:09:38;9.40;;;6.40;;
438;SDS011;206;48.782;9.252;2023-02-28T08:12:07;9.73;;;7.50;;
438;SDS011;206;48.782;9.252;2023-02-28T08:14:34;8.60;;;7.47;;
438;SDS011;206;48.782;9.252;2023-02-28T08:16:59;8.10;;;6.70;;
438;SDS011;206;48.782;9.252;2023-02-28T08:19:25;8.57;;;6.53;;
438;SDS011;206;48.782;9.252;2023-02-28T08:21:51;8.97;;;6.13;;
438;SDS011;206;48.782;9.252;2023-02-28T08:24:16;8.00;;;5.70;;
438;SDS011;206;48.782;9.252;2023-02-28T08:26:42;9.57;;;8.00;;
438;SDS011;206;48.782;9.252;2023-02-28T08:29:07;9.00;;;8.53;;
438;SDS011;206;48.782;9.252;2023-02-28T08:31:33;7.40;;;7.00;;
438;SDS011;206;48.782;9.252;2023-02-28T08:34:00;8.77;;;7.20;;
438;SDS011;206;48.782;9.252;2023-02-28T08:36:32;8.43;;;6.70;;
438;SDS011;206;48.782;9.252;2023-02-28T08:38:58;11.23;;;6.70;;
438;SDS011;206;48.782;9.252;2023-02-28T08:41:24;7.03;;;6.07;;
438;SDS011;206;48.782;9.252;2023-02-28T08:43:50;10.27;;;8.57;;
438;SDS011;206;48.782;9.252;2023-02-28T08:46:16;8.00;;;6.37;;
438;SDS011;206;48.782;9.252;2023-02-28T08:48:42;7.50;;;7.00;;
438;SDS011;206;48.782;9.252;2023-02-28T08:51:13;11.40;;;7.00;;
438;SDS011;206;48.782;9.252;2023-02-28T08:53:47;8.43;;;6.50;;
438;SDS011;206;48.782;9.252;2023-02-28T08:56:14;6.73;;;6.00;;
438;SDS011;206;48.782;9.252;2023-02-28T08:58:43;8.07;;;7.10;;
438;SDS011;206;48.782;9.252;2023-02-28T09:03:45;11.43;;;7.67;;
438;SDS011;206;48.782;9.252;2023-02-28T09:06:13;9.57;;;7.33;;
438;SDS011;206;48.782;9.252;2023-02-28T09:08:39;8.17;;;5.83;;
438;SDS011;206;48.782;9.252;2023-02-28T09:11:06;8.40;;;6.97;;
438;SDS011;206;48.782;9.252;2023-02-28T09:13:32;11.07;;;6.77;;
438;SDS011;206;48.782;9.252;2023-02-28T09:15:58;12.93;;;8.10;;
438;SDS011;206;48.782;9.252;2023-02-28T09:18:25;9.63;;;7.70;;
438;SDS011;206;48.782;9.252;2023-02-28T09:20:52;15.40;;;7.30;;
438;SDS011;206;48.782;9.252;2023-02-28T09:23:18;8.97;;;7.47;;
438;SDS011;206;48.782;9.252;2023-02-28T09:26:01;13.80;;;7.87;;
438;SDS011;206;48.782;9.252;2023-02-28T09:28:28;10.30;;;7.33;;
438;SDS011;206;48.782;9.252;2023-02-28T09:30:54;8.03;;;7.23;;
438;SDS011;206;48.782;9.252;2023-02-28T09:33:20;9.03;;;7.63;;
438;SDS011;206;48.782;9.252;2023-02-28T09:35:46;10.00;;;7.63;;
438;SDS011;206;48.782;9.252;2023-02-28T09:38:13;9.27;;;6.87;;
438;SDS011;206;48.782;9.252;2023-02-28T09:41:01;11.47;;;7.10;;
438;SDS011;206;48.782;9.252;2023-02-28T09:43:33;9.30;;;7.40;;
438;SDS011;206;48.782;9.252;2023-02-28T09:46:05;10.53;;;7.60;;
438;SDS011;206;48.782;9.252;2023-02-28T09:48:53;7.57;;;6.80;;
438;SDS011;206;48.782;9.252;2023-02-28T09:51:28;10.20;;;7.63;;
438;SDS011;206;48.782;9.252;2023-02-28T09:54:00;11.30;;;8.60;;
438;SDS011;206;48.782;9.252;2023-02-28T09:56:28;11.03;;;7.37;;
438;SDS011;206;48.782;9.252;2023-02-28T09:59:01;10.77;;;8.27;;
438;SDS011;206;48.782;9.252;2023-02-28T10:01:45;10.10;;;7.57;;
438;SDS011;206;48.782;9.252;2023-02-28T10:10:17;9.20;;;7.47;;
438;SDS011;206;48.782;9.252;2023-02-28T10:12:56;8.00;;;7.03;;
438;SDS011;206;48.782;9.252;2023-02-28T10:15:25;9.27;;;8.23;;
438;SDS011;206;48.782;9.252;2023-02-28T10:17:56;9.50;;;7.97;;
438;SDS011;206;48.782;9.252;2023-02-28T10:20:25;10.07;;;8.20;;
438;SDS011;206;48.782;9.252;2023-02-28T10:23:16;7.70;;;7.30;;
438;SDS011;206;48.782;9.252;2023-02-28T10:26:11;8.80;;;8.30;;
438;SDS011;206;48.782;9.252;2023-02-28T10:28:38;10.47;;;7.80;;
438;SDS011;206;48.782;9.252;2023-02-28T10:31:04;10.10;;;8.03;;
438;SDS011;206;48.782;9.252;2023-02-28T10:33:30;11.40;;;7.60;;
438;SDS011;206;48.782;9.252;2023-02-28T10:35:59;9.57;;;7.93;;
438;SDS011;206;48.782;9.252;2023-02-28T10:38:31;10.00;;;7.37;;
438;SDS011;206;48.782;9.252;2023-02-28T10:41:06;7.90;;;7.50;;
438;SDS011;206;48.782;9.252;2023-02-28T10:43:36;13.63;;;8.33;;
438;SDS011;206;48.782;9.252;2023-02-28T10:51:16;10.90;;;9.40;;
438;SDS011;206;48.782;9.252;2023-02-28T10:53:48;10.57;;;8.43;;
438;SDS011;206;48.782;9.252;2023-02-28T10:56:19;9.03;;;7.77;;
438;SDS011;206;48.782;9.252;2023-02-28T11:03:49;13.20;;;8.77;;
438;SDS011;206;48.782;9.252;2023-02-28T11:06:19;15.17;;;9.40;;
438;SDS011;206;48.782;9.252;2023-02-28T11:11:25;9.90;;;8.20;;
438;SDS011;206;48.782;9.252;2023-02-28T11:13:54;9.00;;;8.30;;
438;SDS011;206;48.782;9.252;2023-02-28T11:16:22;10.50;;;8.30;;
438;SDS011;206;48.782;9.252;2023-02-28T11:18:58;13.20;;;8.50;;
438;SDS011;206;48.782;9.252;2023-02-28T11:21:26;12.50;;;9.60;;
438;SDS011;206;48.782;9.252;2023-02-28T11:24:22;8.93;;;8.03;;
438;SDS011;206;48.782;9.252;2023-02-28T11:26:54;9.23;;;8.00;;
438;SDS011;206;48.782;9.252;2023-02-28T11:29:28;11.43;;;8.70;;
438;SDS011;206;48.782;9.252;2023-02-28T11:32:03;13.97;;;10.93;;
438;SDS011;206;48.782;9.252;2023-02-28T11:34:44;9.07;;;7.80;;
438;SDS011;206;48.782;9.252;2023-02-28T11:37:16;11.13;;;7.70;;
438;SDS011;206;48.782;9.252;2023-02-28T11:39:44;8.93;;;7.63;;
438;SDS011;206;48.782;9.252;2023-02-28T11:53:22;12.50;;;8.23;;
438;SDS011;206;48.782;9.252;2023-02-28T12:02:05;9.53;;;7.20;;
438;SDS011;206;48.782;9.252;2023-02-28T12:07:45;14.43;;;8.33;;
438;SDS011;206;48.782;9.252;2023-02-28T12:13:18;9.07;;;8.57;;
438;SDS011;206;48.782;9.252;2023-02-28T12:21:31;13.30;;;7.60;;
438;SDS011;206;48.782;9.252;2023-02-28T12:24:05;9.20;;;8.13;;
438;SDS011;206;48.782;9.252;2023-02-28T12:26:52;8.97;;;7.30;;
438;SDS011;206;48.782;9.252;2023-02-28T12:31:47;16.83;;;9.80;;
438;SDS011;206;48.782;9.252;2023-02-28T12:34:19;15.90;;;9.73;;
438;SDS011;206;48.782;9.252;2023-02-28T12:36:52;11.50;;;8.33;;
438;SDS011;206;48.782;9.252;2023-02-28T12:39:23;13.73;;;7.70;;
438;SDS011;206;48.782;9.252;2023-02-28T12:47:09;9.53;;;8.33;;
438;SDS011;206;48.782;9.252;2023-02-28T12:49:49;8.53;;;8.03;;
438;SDS011;206;48.782;9.252;2023-02-28T12:52:18;8.73;;;7.07;;
438;SDS011;206;48.782;9.252;2023-02-28T12:54:55;16.40;;;8.63;;
438;SDS011;206;48.782;9.252;2023-02-28T12:57:39;19.70;;;8.17;;
438;SDS011;206;48.782;9.252;2023-02-28T13:00:14;14.68;;;8.38;;
438;SDS011;206;48.782;9.252;2023-02-28T13:10:53;11.97;;;8.07;;
438;SDS011;206;48.782;9.252;2023-02-28T13:13:37;8.87;;;8.33;;
438;SDS011;206;48.782;9.252;2023-02-28T13:21:08;9.00;;;7.40;;
438;SDS011;206;48.782;9.252;2023-02-28T13:23:56;8.10;;;7.80;;
438;SDS011;206;48.782;9.252;2023-02-28T13:29:00;8.80;;;8.30;;
438;SDS011;206;48.782;9.252;2023-02-28T13:34:37;10.60;;;8.60;;
438;SDS011;206;48.782;9.252;2023-02-28T13:39:52;11.40;;;8.87;;
438;SDS011;206;48.782;9.252;2023-02-28T13:45:19;10.47;;;7.60;;
438;SDS011;206;48.782;9.252;2023-02-28T13:47:43;10.17;;;7.40;;
438;SDS011;206;48.782;9.252;2023-02-28T13:55:36;11.27;;;8.60;;
438;SDS011;206;48.782;9.252;2023-02-28T14:06:47;7.03;;;6.70;;
438;SDS011;206;48.782;9.252;2023-02-28T14:09:27;8.73;;;7.60;;
438;SDS011;206;48.782;9.252;2023-02-28T14:11:56;10.93;;;8.43;;
438;SDS011;206;48.782;9.252;2023-02-28T14:17:08;9.30;;;7.30;;
438;SDS011;206;48.782;9.252;2023-02-28T14:19:41;9.40;;;7.80;;
438;SDS011;206;48.782;9.252;2023-02-28T14:31:01;7.80;;;7.40;;
438;SDS011;206;48.782;9.252;2023-02-28T14:36:26;8.97;;;7.80;;
438;SDS011;206;48.782;9.252;2023-02-28T14:38:57;8.63;;;7.20;;
438;SDS011;206;48.782;9.252;2023-02-28T14:41:33;11.47;;;8.23;;
438;SDS011;206;48.782;9.252;2023-02-28T14:44:02;7.27;;;6.87;;
438;SDS011;206;48.782;9.252;2023-02-28T14:46:44;8.80;;;8.30;;
438;SDS011;206;48.782;9.252;2023-02-28T14:49:13;10.80;;;8.60;;
438;SDS011;206;48.782;9.252;2023-02-28T14:51:45;9.13;;;8.33;;
438;SDS011;206;48.782;9.252;2023-02-28T14:54:13;11.40;;;7.87;;
438;SDS011;206;48.782;9.252;2023-02-28T14:56:41;7.87;;;7.47;;
438;SDS011;206;48.782;9.252;2023-02-28T14:59:23;9.37;;;7.50;;
438;SDS011;206;48.782;9.252;2023-02-28T15:01:52;8.10;;;7.63;;
438;SDS011;206;48.782;9.252;2023-02-28T15:04:37;10.17;;;8.07;;
438;SDS011;206;48.782;9.252;2023-02-28T15:07:15;12.40;;;8.73;;
438;SDS011;206;48.782;9.252;2023-02-28T15:09:41;9.23;;;7.80;;
438;SDS011;206;48.782;9.252;2023-02-28T15:12:06;9.80;;;7.63;;
438;SDS011;206;48.782;9.252;2023-02-28T15:14:32;8.00;;;7.30;;
438;SDS011;206;48.782;9.252;2023-02-28T15:17:17;13.23;;;8.53;;
438;SDS011;206;48.782;9.252;2023-02-28T15:19:48;8.80;;;8.00;;
438;SDS011;206;48.782;9.252;2023-02-28T15:22:19;10.33;;;7.73;;
438;SDS011;206;48.782;9.252;2023-02-28T15:24:53;8.93;;;8.40;;
438;SDS011;206;48.782;9.252;2023-02-28T15:29:48;10.50;;;8.03;;
438;SDS011;206;48.782;9.252;2023-02-28T15:32:24;8.40;;;7.17;;
438;SDS011;206;48.782;9.252;2023-02-28T15:34:53;9.80;;;8.17;;
438;SDS011;206;48.782;9.252;2023-02-28T15:40:27;8.53;;;7.23;;
438;SDS011;206;48.782;9.252;2023-02-28T15:42:59;9.70;;;7.97;;
438;SDS011;206;48.782;9.252;2023-02-28T15:45:38;9.93;;;8.53;;
438;SDS011;206;48.782;9.252;2023-02-28T15:51:14;10.30;;;8.60;;
438;SDS011;206;48.782;9.252;2023-02-28T15:56:22;8.67;;;8.07;;
438;SDS011;206;48.782;9.252;2023-02-28T15:59:13;15.50;;;9.87;;
438;SDS011;206;48.782;9.252;2023-02-28T16:01:42;10.27;;;8.17;;
438;SDS011;206;48.782;9.252;2023-02-28T16:04:26;11.10;;;8.10;;
438;SDS011;206;48.782;9.252;2023-02-28T16:09:25;7.60;;;6.77;;
438;SDS011;206;48.782;9.252;2023-02-28T16:11:52;13.07;;;8.43;;
438;SDS011;206;48.782;9.252;2023-02-28T16:14:24;8.43;;;7.23;;
438;SDS011;206;48.782;9.252;2023-02-28T16:17:03;10.10;;;8.90;;
438;SDS011;206;48.782;9.252;2023-02-28T16:19:31;9.90;;;8.90;;
438;SDS011;206;48.782;9.252;2023-02-28T16:21:57;10.90;;;9.00;;
438;SDS011;206;48.782;9.252;2023-02-28T16:24:22;8.43;;;7.30;;
438;SDS011;206;48.782;9.252;2023-02-28T16:26:48;8.20;;;7.63;;
438;SDS011;206;48.782;9.252;2023-02-28T16:29:35;7.80;;;7.40;;
438;SDS011;206;48.782;9.252;2023-02-28T16:32:03;10.97;;;7.90;;
438;SDS011;206;48.782;9.252;2023-02-28T16:34:30;13.40;;;8.87;;
438;SDS011;206;48.782;9.252;2023-02-28T16:36:56;9.90;;;8.93;;
438;SDS011;206;48.782;9.252;2023-02-28T16:39:22;9.00;;;8.10;;
438;SDS011;206;48.782;9.252;2023-02-28T16:41:48;10.40;;;8.43;;
438;SDS011;206;48.782;9.252;2023-02-28T16:44:24;11.07;;;7.50;;
438;SDS011;206;48.782;9.252;2023-02-28T16:46:56;8.00;;;7.10;;
438;SDS011;206;48.782;9.252;2023-02-28T16:49:25;14.07;;;9.57;;
438;SDS011;206;48.782;9.252;2023-02-28T16:51:50;13.53;;;8.73;;
438;SDS011;206;48.782;9.252;2023-02-28T16:54:16;9.33;;;7.77;;
438;SDS011;206;48.782;9.252;2023-02-28T16:56:43;9.57;;;8.90;;
438;SDS011;206;48.782;9.252;2023-02-28T16:59:10;13.77;;;9.07;;
438;SDS011;206;48.782;9.252;2023-02-28T17:01:37;10.17;;;8.10;;
438;SDS011;206;48.782;9.252;2023-02-28T17:04:03;9.80;;;9.10;;
438;SDS011;206;48.782;9.252;2023-02-28T17:06:29;11.50;;;8.23;;
438;SDS011;206;48.782;9.252;2023-02-28T17:08:56;8.63;;;7.50;;
438;SDS011;206;48.782;9.252;2023-02-28T17:11:23;12.70;;;10.47;;
438;SDS011;206;48.782;9.252;2023-02-28T17:13:49;12.50;;;10.30;;
438;SDS011;206;48.782;9.252;2023-02-28T17:16:28;9.73;;;7.93;;
438;SDS011;206;48.782;9.252;2023-02-28T17:18:56;10.63;;;7.40;;
438;SDS011;206;48.782;9.252;2023-02-28T17:21:24;11.30;;;9.83;;
438;SDS011;206;48.782;9.252;2023-02-28T17:23:50;11.93;;;8.43;;
438;SDS011;206;48.782;9.252;2023-02-28T17:26:17;9.73;;;9.10;;
438;SDS011;206;48.782;9.252;2023-02-28T17:28:45;12.97;;;8.60;;
438;SDS011;206;48.782;9.252;2023-02-28T17:31:14;10.93;;;9.63;;
438;SDS011;206;48.782;9.252;2023-02-28T17:33:40;14.73;;;9.27;;
438;SDS011;206;48.782;9.252;2023-02-28T17:36:06;18.33;;;10.37;;
438;SDS011;206;48.782;9.252;2023-02-28T17:38:41;14.47;;;9.80;;
438;SDS011;206;48.782;9.252;2023-02-28T17:41:10;11.73;;;9.20;;
438;SDS011;206;48.782;9.252;2023-02-28T17:43:36;11.87;;;9.10;;
438;SDS011;206;48.782;9.252;2023-02-28T17:46:01;9.90;;;8.80;;
438;SDS011;206;48.782;9.252;2023-02-28T17:48:29;10.57;;;8.83;;
438;SDS011;206;48.782;9.252;2023-02-28T17:50:55;12.23;;;9.40;;
438;SDS011;206;48.782;9.252;2023-02-28T17:53:21;9.90;;;9.20;;
438;SDS011;206;48.782;9.252;2023-02-28T17:55:48;12.13;;;10.57;;
438;SDS011;206;48.782;9.252;2023-02-28T17:58:14;11.87;;;9.87;;
438;SDS011;206;48.782;9.252;2023-02-28T18:00:39;12.73;;;10.70;;
438;SDS011;206;48.782;9.252;2023-02-28T18:03:05;12.83;;;10.90;;
438;SDS011;206;48.782;9.252;2023-02-28T18:05:31;10.30;;;9.30;;
438;SDS011;206;48.782;9.252;2023-02-28T18:07:57;12.30;;;9.47;;
438;SDS011;206;48.782;9.252;2023-02-28T18:10:23;10.10;;;8.97;;
438;SDS011;206;48.782;9.252;2023-02-28T18:12:50;11.87;;;9.57;;
438;SDS011;206;48.782;9.252;2023-02-28T18:15:17;11.73;;;9.20;;
438;SDS011;206;48.782;9.252;2023-02-28T18:17:47;11.63;;;10.13;;
438;SDS011;206;48.782;9.252;2023-02-28T18:20:13;8.97;;;7.63;;
438;SDS011;206;48.782;9.252;2023-02-28T18:22:39;17.43;;;11.50;;
438;SDS011;206;48.782;9.252;2023-02-28T18:25:06;10.27;;;8.77;;
438;SDS011;206;48.782;9.252;2023-02-28T18:27:33;12.87;;;9.90;;
438;SDS011;206;48.782;9.252;2023-02-28T18:30:00;11.70;;;9.77;;
438;SDS011;206;48.782;9.252;2023-02-28T18:32:28;13.33;;;8.87;;
438;SDS011;206;48.782;9.252;2023-02-28T18:34:53;13.30;;;9.40;;
438;SDS011;206;48.782;9.252;2023-02-28T18:37:19;14.80;;;10.20;;
438;SDS011;206;48.782;9.252;2023-02-28T18:39:45;12.57;;;10.77;;